Tournaments

5,108 Players online now
Active Tournaments: 295
We've got a massive selection of tournaments for you to play in, with all types of poker catered for and a variety of buy-ins to suit your bankroll. You'll also find a great number of tournaments with guaranteed prize pools among our schedule. All tournament details can be found below, with specific details and registration options available when you download and launch the Paddy Power Poker client.
Name Start (GMT) Buy-in Fee Game Rebuy
Sat 5€ - 10 Tickets GTD 2022-08-12 7:10 PM €0.45 €0.05 Holdem Yes
€1,000 GTD - PLO Rebuy 2022-08-12 7:15 PM €4.55 €0.45 Omaha Yes
€1,000 GTD Rebuy 2022-08-12 7:15 PM €2.73 €0.27 Holdem Yes
Sat 10€ - 5 Tickets GTD 2022-08-12 7:20 PM €0.91 €0.09 Holdem Yes
Big Weekly Mega Sat - 2 seats 2022-08-12 7:30 PM €1.82 €0.18 Holdem Yes
Second Chance HR - €5,000 GTD 2022-08-12 7:30 PM €91.0 €18.0 Holdem No
Second Chance - €4,000 GTD 2022-08-12 7:30 PM €22.75 €4.5 Holdem No
50 Cent Killarney feeder sat 2022-08-12 7:30 PM €0.5 €0.0 Holdem No
Mini 2nd Chance - €2,000 GTD 2022-08-12 7:30 PM €6.83 €1.35 Holdem No
Eliminator €10 Sat - 3 seats 2022-08-12 7:30 PM €0.91 €0.09 Holdem No
IPT Killarney 2x €500 seat sat 2022-08-12 7:30 PM €18.2 €1.8 Holdem Yes
Eliminator €20 Sat - 3 seats 2022-08-12 7:45 PM €1.82 €0.18 Holdem No
€4,000 GTD Fists of Fury-Rebuy 2022-08-12 7:45 PM €18.2 €1.8 Holdem Yes
Big Weekly - €30k GTD - Day 1 2022-08-12 7:45 PM €27.3 €2.7 Holdem No
All In Sat 50€ - 1 Ticket GTD 2022-08-12 7:47 PM €4.55 €0.45 Holdem No
All In Sat 50€ - 1 Ticket GTD 2022-08-12 7:57 PM €4.55 €0.45 Holdem No
Dublin Poker Series 2x€150 sat 2022-08-12 8:00 PM €9.1 €0.9 Holdem Yes
Cork City Club Game 2022-08-12 8:00 PM €25.0 €0.0 Holdem Yes
Eliminator €25K Sat - 2 seats 2022-08-12 8:00 PM €9.1 €0.9 Holdem No
Eliminator €15K Sat - 3 seats 2022-08-12 8:00 PM €2.73 €0.27 Holdem No
€50 Daily Freeroll 2022-08-12 8:00 PM €0.0 €0.0 Holdem No
€1,500 - Action KO 2022-08-12 8:00 PM €3.41 €0.68 Holdem No
€1,000 GTD Turbo Rebuy 2022-08-12 8:15 PM €1.82 €0.18 Holdem Yes
€3 IPT Killarney feeder sat 2022-08-12 8:30 PM €3.0 €0.0 Holdem Yes
€1,000 GTD Bounty Hunter 2022-08-12 8:40 PM €2.28 €0.45 Holdem No

Quick Links

Social

Get in Touch